Time;durP1;ratioP1;P1;durP2;ratioP2;P2;SDS_P1;SDS_P2;PMS_P1;PMS_P2;Temp;Humidity;BMP_temperature;BMP_pressure;BME280_temperature;BME280_humidity;BME280_pressure;Samples;Min_cycle;Max_cycle;Signal;HPM_P1;HPM_P2
2022/06/11 00:01:24;;;;;;;8.45;7.22;;;15.90;99.90;;;-141.84;67.51;18952.22;5027267;28;20810;-58
2022/06/11 00:03:58;;;;;;;7.80;7.00;;;15.90;99.90;;;-141.84;67.73;18988.78;5029157;28;20230;-57
2022/06/11 00:06:30;;;;;;;7.40;6.68;;;15.90;99.90;;;-141.84;68.52;18952.22;5030192;28;20233;-59
2022/06/11 00:08:59;;;;;;;7.18;6.28;;;15.80;99.90;;;-141.84;69.41;18933.94;5020676;28;20219;-57
2022/06/11 00:11:27;;;;;;;7.30;6.43;;;15.80;99.90;;;-141.84;70.13;18944.09;5007227;28;20662;-58
2022/06/11 00:13:56;;;;;;;8.23;6.32;;;15.70;99.90;;;-141.84;70.60;18911.56;5008249;28;20775;-57
2022/06/11 00:16:26;;;;;;;7.40;6.70;;;15.70;99.90;;;-141.84;70.49;18909.53;5007382;28;20298;-58
2022/06/11 00:18:58;;;;;;;7.38;6.68;;;15.70;99.90;;;-141.84;70.92;18917.66;5007286;28;20231;-57
2022/06/11 00:21:32;;;;;;;7.97;6.47;;;15.70;99.90;;;-141.84;70.48;18905.47;5007401;28;20330;-57
2022/06/11 00:24:00;;;;;;;6.75;6.05;;;15.70;99.90;;;-141.84;70.11;18921.75;5007322;28;20238;-60
2022/06/11 00:26:29;;;;;;;6.85;6.18;;;15.70;99.90;;;-141.84;70.27;18911.56;5007224;28;20199;-58
2022/06/11 00:28:57;;;;;;;6.93;6.13;;;15.70;99.90;;;-141.84;70.81;18897.34;5008677;28;20230;-58
2022/06/11 00:31:26;;;;;;;7.38;6.68;;;15.70;99.90;;;-141.84;70.94;18913.59;5007481;28;20785;-58
2022/06/11 00:33:54;;;;;;;7.93;6.65;;;15.70;99.90;;;-141.84;69.95;18935.97;5007309;28;20611;-60
2022/06/11 00:36:22;;;;;;;7.63;6.93;;;15.70;99.90;;;-141.84;69.86;18917.66;5007099;28;20230;-57
2022/06/11 00:38:53;;;;;;;8.15;6.75;;;15.70;99.90;;;-141.84;70.34;18907.50;4991508;28;20249;-58
2022/06/11 00:41:25;;;;;;;6.85;5.95;;;15.80;99.90;;;-141.84;70.66;18895.31;5007055;28;20210;-59
2022/06/11 00:43:54;;;;;;;6.80;6.05;;;15.80;99.90;;;-141.84;70.60;18887.19;5009753;28;20205;-58
2022/06/11 00:46:53;;;;;;;8.38;6.95;;;15.80;99.90;;;-141.84;70.85;18911.56;5010511;28;20238;-57
2022/06/11 00:49:32;;;;;;;9.98;6.85;;;15.70;99.90;;;-141.84;70.25;18911.56;5003043;28;20226;-57
2022/06/11 00:52:13;;;;;;;6.95;6.35;;;15.80;99.90;;;-141.84;70.63;18917.66;5007243;28;20237;-57
2022/06/11 00:54:48;;;;;;;8.50;7.22;;;15.80;99.90;;;-141.84;70.63;18905.47;5006856;28;20238;-58
2022/06/11 00:57:17;;;;;;;9.20;6.93;;;15.80;99.90;;;-141.84;71.15;18895.31;5006987;28;20702;-58
2022/06/11 00:59:54;;;;;;;10.23;7.38;;;15.80;99.90;;;-141.84;71.46;18868.91;5006900;28;20722;-59
2022/06/11 01:02:23;;;;;;;8.00;7.20;;;15.70;99.90;;;-141.84;72.36;18885.16;5021111;28;20669;-57
2022/06/11 01:04:54;;;;;;;9.18;7.88;;;15.70;99.90;;;-141.84;72.11;18893.28;5004394;28;20210;-58
2022/06/11 01:07:51;;;;;;;10.50;7.85;;;15.70;99.90;;;-141.84;72.64;18895.31;5006681;28;20272;-58
2022/06/11 01:10:41;;;;;;;9.68;8.77;;;15.60;99.90;;;-141.84;72.82;18907.50;5002740;28;20305;-59
2022/06/11 01:13:30;;;;;;;8.85;8.02;;;15.60;99.90;;;-141.84;72.99;18842.50;4993626;28;20624;-56
2022/06/11 01:16:05;;;;;;;8.88;7.93;;;15.60;99.90;;;-141.84;73.61;18860.78;5007059;28;20865;-59
2022/06/11 01:18:52;;;;;;;10.38;8.00;;;15.50;99.90;;;-141.84;74.13;18814.03;5012399;28;20229;-59
2022/06/11 01:21:33;;;;;;;10.38;9.27;;;15.50;99.90;;;-141.84;73.59;18860.78;4995135;28;20681;-57
2022/06/11 01:24:33;;;;;;;9.38;8.40;;;15.50;99.90;;;-141.84;74.03;18850.63;5006809;28;20329;-58
2022/06/11 01:27:41;;;;;;;8.95;8.15;;;15.50;99.90;;;-141.84;75.31;18785.59;4992449;28;20223;-59
2022/06/11 01:30:18;;;;;;;8.65;7.80;;;15.40;99.90;;;-141.84;76.26;18783.56;5004993;28;20233;-58
2022/06/11 01:32:59;;;;;;;9.25;8.32;;;15.30;99.90;;;-141.84;75.64;18781.53;5006659;28;20722;-56
2022/06/11 01:36:02;;;;;;;10.18;8.35;;;15.30;99.90;;;-141.84;75.66;18789.66;4996060;28;20316;-56
2022/06/11 01:38:37;;;;;;;8.60;7.72;;;15.20;99.90;;;-141.84;75.31;18816.06;5006303;28;20309;-56
2022/06/11 01:41:28;;;;;;;9.15;7.95;;;15.20;99.90;;;-141.84;75.57;18777.47;4998947;28;20225;-59
2022/06/11 01:44:01;;;;;;;9.18;8.27;;;15.20;99.90;;;-141.84;75.86;18805.91;5026834;28;20726;-59
2022/06/11 01:46:36;;;;;;;9.32;8.38;;;15.10;99.90;;;-141.84;76.03;18775.44;5026384;28;20332;-57
2022/06/11 01:49:27;;;;;;;9.25;8.25;;;15.10;99.90;;;-141.84;76.45;18807.94;5026623;28;20571;-58
2022/06/11 01:52:07;;;;;;;8.73;7.75;;;15.10;99.90;;;-141.84;76.32;18777.47;5029901;28;20226;-58
2022/06/11 01:54:45;;;;;;;8.68;7.88;;;15.10;99.90;;;-141.84;76.12;18785.59;5029280;28;20244;-60
2022/06/11 01:57:38;;;;;;;8.80;8.00;;;15.10;99.90;;;-141.84;76.51;18757.16;5029541;28;20229;-57
2022/06/11 02:00:19;;;;;;;9.10;8.20;;;15.10;99.90;;;-141.84;76.49;18793.72;5029741;28;20777;-57
2022/06/11 02:03:27;;;;;;;8.98;8.02;;;15.10;99.90;;;-141.84;76.83;18777.47;5029692;28;20303;-59
2022/06/11 02:06:19;;;;;;;8.15;7.45;;;15.00;99.90;;;-141.84;77.44;18742.94;5028665;28;20317;-59
2022/06/11 02:09:05;;;;;;;9.00;8.20;;;15.00;99.90;;;-141.84;77.92;18744.97;5027226;28;20239;-58
2022/06/11 02:11:39;;;;;;;8.63;7.82;;;15.00;99.90;;;-141.84;78.96;18694.16;5027093;28;20240;-57
2022/06/11 02:14:18;;;;;;;9.23;8.23;;;14.90;99.90;;;-141.84;78.71;18747.00;5024768;28;20197;-56
2022/06/11 02:16:54;;;;;;;9.02;8.13;;;14.90;99.90;;;-141.84;78.41;18765.28;5029610;28;20276;-57
2022/06/11 02:19:31;;;;;;;8.77;7.93;;;15.00;99.90;;;-141.84;78.96;18716.53;5028711;28;20312;-56
2022/06/11 02:22:07;;;;;;;7.97;7.18;;;14.90;99.90;;;-141.84;80.26;18736.84;5015125;28;20230;-59
2022/06/11 02:24:42;;;;;;;8.00;7.22;;;14.90;99.90;;;-141.84;80.71;18718.56;5009214;28;20325;-59
2022/06/11 02:27:16;;;;;;;9.27;8.40;;;14.90;99.90;;;-141.84;80.45;18681.97;5009593;28;20226;-58
2022/06/11 02:29:46;;;;;;;8.80;7.95;;;14.90;99.90;;;-141.84;80.99;18673.84;5012004;28;20256;-58
2022/06/11 02:32:19;;;;;;;8.85;8.05;;;14.90;99.90;;;-141.84;81.56;18706.38;5012698;28;20626;-56
2022/06/11 02:34:54;;;;;;;7.60;6.82;;;14.80;99.90;;;-141.84;83.16;18696.19;5013162;28;20298;-59
2022/06/11 02:37:27;;;;;;;8.38;7.43;;;14.80;99.90;;;-141.84;84.30;18631.19;5012705;28;20721;-57
2022/06/11 02:40:03;;;;;;;8.15;7.40;;;14.80;99.90;;;-141.84;84.92;18619.00;5012588;28;20227;-58
2022/06/11 02:42:32;;;;;;;7.72;6.93;;;14.70;99.90;;;-141.84;84.00;18635.25;5012557;28;20246;-58
2022/06/11 02:45:00;;;;;;;8.90;6.93;;;14.80;99.90;;;-141.84;84.44;18639.31;5012637;28;20222;-58
2022/06/11 02:47:28;;;;;;;8.05;6.70;;;14.80;99.90;;;-141.84;84.34;18657.59;5012809;28;20206;-58
2022/06/11 02:49:58;;;;;;;8.43;6.97;;;14.90;99.90;;;-141.84;85.14;18606.81;5012490;28;20223;-58
2022/06/11 02:52:26;;;;;;;9.18;6.80;;;14.90;99.90;;;-141.84;86.05;18625.09;5012316;28;20233;-58
2022/06/11 02:54:54;;;;;;;8.00;6.78;;;14.80;99.90;;;-141.84;86.69;18578.38;5012242;28;20513;-58
2022/06/11 02:57:29;;;;;;;8.20;6.32;;;14.80;99.90;;;-141.84;86.66;18560.06;5012282;28;20579;-57
2022/06/11 02:59:58;;;;;;;10.52;7.05;;;14.80;99.90;;;-141.84;85.52;18574.28;5012234;28;20321;-58
2022/06/11 03:02:27;;;;;;;10.55;6.80;;;14.90;99.90;;;-141.84;85.16;18637.28;5012383;28;20293;-57
2022/06/11 03:04:56;;;;;;;10.87;6.87;;;15.00;99.90;;;-141.84;84.49;18582.44;5005989;28;20214;-58
2022/06/11 03:07:25;;;;;;;10.30;6.60;;;15.00;99.90;;;-141.84;84.36;18590.56;5029765;28;20675;-59
2022/06/11 03:09:54;;;;;;;6.60;5.95;;;15.00;99.90;;;-141.84;84.36;18608.84;5016567;28;20257;-58
2022/06/11 03:12:22;;;;;;;9.98;6.75;;;15.10;99.90;;;-141.84;83.71;18600.72;5011807;28;20233;-58
2022/06/11 03:14:50;;;;;;;7.20;6.50;;;15.10;99.90;;;-141.84;83.48;18604.78;5012063;28;20310;-58
2022/06/11 03:17:20;;;;;;;7.80;5.70;;;15.10;99.90;;;-141.84;84.41;18614.94;5011677;28;20216;-58
2022/06/11 03:19:50;;;;;;;8.13;6.20;;;15.10;99.90;;;-141.84;83.92;18633.22;5011974;28;20221;-59
2022/06/11 03:22:20;;;;;;;8.57;6.50;;;15.10;99.90;;;-141.84;83.30;18610.88;5011872;28;20230;-59
2022/06/11 03:24:48;;;;;;;6.53;5.80;;;15.20;99.90;;;-141.84;82.69;18629.16;5011697;28;20223;-56
2022/06/11 03:27:17;;;;;;;9.80;6.18;;;15.20;99.90;;;-141.84;82.38;18610.88;5011990;28;20222;-58
2022/06/11 03:29:46;;;;;;;8.73;6.35;;;15.30;99.90;;;-141.84;82.15;18629.16;5011661;28;20230;-57
2022/06/11 03:32:14;;;;;;;8.30;6.05;;;15.40;99.90;;;-141.84;81.07;18679.94;5011943;28;20285;-60
2022/06/11 03:34:42;;;;;;;10.13;5.78;;;15.50;99.90;;;-141.84;79.99;18690.09;5005794;28;20217;-57
2022/06/11 03:37:11;;;;;;;8.25;6.00;;;15.60;99.90;;;-141.84;78.62;18753.09;5011581;28;20233;-58
2022/06/11 03:39:41;;;;;;;9.13;6.05;;;15.80;99.90;;;-141.84;78.06;18757.16;5011523;28;20596;-58
2022/06/11 03:42:10;;;;;;;7.72;6.15;;;15.90;99.90;;;-141.84;77.50;18769.34;5011480;28;20226;-60
2022/06/11 03:44:38;;;;;;;7.60;5.63;;;16.10;99.90;;;-141.84;78.12;18789.66;5011605;28;20317;-56
2022/06/11 03:47:06;;;;;;;8.13;5.97;;;16.20;99.90;;;-141.84;76.96;18809.97;5012059;28;20217;-59
2022/06/11 03:49:35;;;;;;;7.25;6.15;;;16.30;99.90;;;-141.84;76.68;18822.19;5011074;28;20227;-59
2022/06/11 03:52:05;;;;;;;10.30;5.55;;;16.30;99.90;;;-141.84;76.31;18830.31;5017167;28;20230;-57
2022/06/11 03:54:35;;;;;;;8.90;5.80;;;16.40;99.90;;;-141.84;75.91;18840.47;5000417;28;20239;-58
2022/06/11 03:57:05;;;;;;;10.02;5.80;;;16.50;99.90;;;-141.84;76.56;18797.78;4991707;28;20252;-58
2022/06/11 03:59:34;;;;;;;6.82;5.32;;;16.60;99.90;;;-141.84;76.20;18830.31;4991705;28;20326;-58
2022/06/11 04:02:03;;;;;;;6.50;5.15;;;16.60;99.90;;;-141.84;75.10;18834.38;4992176;28;20198;-57
2022/06/11 04:04:31;;;;;;;7.50;4.97;;;16.70;99.90;;;-141.84;75.62;18822.19;5008030;28;20226;-56
2022/06/11 04:07:02;;;;;;;8.10;5.22;;;16.70;99.90;;;-141.84;74.78;18842.50;5011593;28;20281;-56
2022/06/11 04:09:35;;;;;;;7.72;5.28;;;16.70;99.90;;;-141.84;74.49;18887.19;5013244;28;20230;-58
2022/06/11 04:12:11;;;;;;;8.95;5.47;;;16.70;99.90;;;-141.84;74.03;18893.28;5024302;28;20225;-58
2022/06/11 04:14:40;;;;;;;8.30;5.28;;;16.80;99.90;;;-141.84;73.85;18879.06;5040679;28;20217;-58
2022/06/11 04:17:14;;;;;;;6.18;4.75;;;16.90;99.90;;;-141.84;73.40;18911.56;5011594;28;20209;-56
2022/06/11 04:19:47;;;;;;;9.60;5.20;;;16.90;99.90;;;-141.84;72.18;18891.25;5011017;28;20207;-58
2022/06/11 04:22:16;;;;;;;9.52;5.28;;;17.00;99.90;;;-141.84;72.04;18923.78;5027624;28;20312;-58
2022/06/11 04:24:45;;;;;;;6.18;4.95;;;17.00;99.90;;;-141.84;72.54;18901.41;5028758;28;20642;-58
2022/06/11 04:27:19;;;;;;;10.63;5.15;;;17.10;99.90;;;-141.84;71.65;18950.19;5020035;28;20321;-58
2022/06/11 04:29:52;;;;;;;8.13;5.47;;;17.20;99.90;;;-141.84;70.56;18923.78;5030127;28;20241;-57
2022/06/11 04:32:22;;;;;;;7.43;6.03;;;17.30;99.90;;;-141.84;69.55;18970.50;5030502;28;20190;-58
2022/06/11 04:34:51;;;;;;;7.10;4.88;;;17.30;99.90;;;-141.84;69.78;18964.41;4998300;28;20207;-58
2022/06/11 04:37:23;;;;;;;6.53;5.10;;;17.30;99.90;;;-141.84;68.50;18996.91;4990979;28;20322;-57
2022/06/11 04:39:54;;;;;;;5.72;4.60;;;17.40;99.90;;;-141.84;68.43;19009.09;4990915;28;20235;-56
2022/06/11 04:42:26;;;;;;;7.95;4.80;;;17.50;99.90;;;-141.84;69.49;18970.50;4999541;28;20257;-58
2022/06/11 04:44:54;;;;;;;6.88;5.25;;;17.60;99.90;;;-141.84;68.07;19057.88;5010677;28;20645;-59
2022/06/11 04:47:26;;;;;;;7.97;4.70;;;17.60;99.90;;;-141.84;68.84;19005.03;5010557;28;20207;-57
2022/06/11 04:49:56;;;;;;;7.13;4.85;;;17.70;99.90;;;-141.84;68.44;19086.31;5010676;28;20207;-58
2022/06/11 04:52:26;;;;;;;5.97;4.70;;;17.70;99.90;;;-141.84;68.00;19021.31;5010476;28;20226;-57
2022/06/11 04:54:55;;;;;;;6.10;4.68;;;17.70;99.90;;;-141.84;68.35;19013.16;5010261;28;20223;-56
2022/06/11 04:57:24;;;;;;;7.45;4.93;;;17.70;99.90;;;-141.84;67.45;19057.88;5010499;28;20230;-58
2022/06/11 04:59:53;;;;;;;5.32;4.72;;;17.80;99.90;;;-141.84;67.89;19011.13;5010139;28;20657;-59
2022/06/11 05:02:22;;;;;;;5.60;5.05;;;17.80;99.90;;;-141.84;63.93;19179.78;5010455;28;20294;-56
2022/06/11 05:04:52;;;;;;;8.63;4.63;;;18.30;99.90;;;-141.84;56.49;19561.84;5010439;28;20217;-58
2022/06/11 05:07:21;;;;;;;6.97;4.07;;;19.80;99.90;;;-141.84;47.91;20049.59;5010371;28;20254;-57
2022/06/11 05:09:50;;;;;;;6.20;3.85;;;21.80;99.90;;;-141.84;41.84;20539.47;5010171;28;20790;-57
2022/06/11 05:12:18;;;;;;;6.15;4.03;;;23.40;99.90;;;-141.84;37.99;20891.13;5010246;28;20740;-58
2022/06/11 05:14:48;;;;;;;5.10;4.07;;;24.80;99.90;;;-141.84;34.83;21222.53;5010611;28;20258;-59
2022/06/11 05:17:16;;;;;;;4.75;3.22;;;25.80;99.90;;;-141.84;34.03;21305.88;5010528;28;20321;-58
2022/06/11 05:19:44;;;;;;;6.70;3.53;;;26.70;99.90;;;-141.84;33.98;21281.47;5010798;28;20286;-57
2022/06/11 05:22:13;;;;;;;8.10;3.65;;;26.20;99.90;;;-141.84;34.04;21236.75;5010157;28;20257;-59
2022/06/11 05:24:41;;;;;;;7.40;3.97;;;26.20;99.90;;;-141.84;34.27;21163.56;5012002;28;20244;-58
2022/06/11 05:27:15;;;;;;;5.63;3.58;;;26.20;99.90;;;-141.84;34.90;21104.59;5013402;28;20226;-59
2022/06/11 05:29:54;;;;;;;7.20;4.35;;;25.60;99.90;;;-141.84;35.41;21031.41;5018165;28;20228;-59
2022/06/11 05:32:26;;;;;;;4.90;3.97;;;25.20;99.90;;;-141.84;35.74;21033.44;5032393;28;20290;-58
2022/06/11 05:34:55;;;;;;;4.32;3.90;;;24.90;99.90;;;-141.84;35.36;21041.56;5012758;28;20255;-58
2022/06/11 05:37:24;;;;;;;6.25;4.13;;;24.90;99.90;;;-141.84;36.34;20897.25;5013848;28;20314;-58
2022/06/11 05:39:52;;;;;;;8.07;4.00;;;24.40;99.90;;;-141.84;37.92;20685.81;4994536;28;20830;-59
2022/06/11 05:42:24;;;;;;;6.38;4.15;;;23.80;99.90;;;-141.84;40.50;20427.66;4993780;28;20517;-57
2022/06/11 05:44:54;;;;;;;5.93;3.90;;;23.30;99.90;;;-141.84;42.58;20248.78;4994232;28;20349;-58
2022/06/11 05:47:25;;;;;;;5.00;3.78;;;23.10;99.90;;;-141.84;44.17;20163.41;4993746;28;20282;-58
2022/06/11 05:49:59;;;;;;;4.43;3.70;;;22.80;99.90;;;-141.84;45.43;20019.13;4996930;28;20306;-58
2022/06/11 05:52:32;;;;;;;5.18;4.03;;;22.30;99.90;;;-141.84;46.30;19958.13;5013449;28;20255;-58
2022/06/11 05:55:01;;;;;;;6.75;3.88;;;22.00;99.90;;;-141.84;46.58;19966.28;5013381;28;20223;-57
2022/06/11 05:57:29;;;;;;;6.30;4.22;;;21.90;99.90;;;-141.84;47.42;19911.41;5014125;28;20231;-58
2022/06/11 06:00:07;;;;;;;6.18;4.28;;;21.80;99.90;;;-141.84;47.76;19864.66;5013505;28;20226;-59
2022/06/11 06:02:35;;;;;;;4.95;4.18;;;21.80;99.90;;;-141.84;47.75;19878.88;5013277;28;20307;-57
2022/06/11 06:05:04;;;;;;;9.52;4.45;;;21.80;99.90;;;-141.84;47.96;19854.50;5012195;28;20206;-58
2022/06/11 06:07:32;;;;;;;7.53;4.47;;;21.70;99.90;;;-141.84;48.36;19834.16;5012963;28;20233;-58
2022/06/11 06:10:00;;;;;;;7.53;4.50;;;21.90;99.90;;;-141.84;48.91;19807.75;5012863;28;20226;-57
2022/06/11 06:12:32;;;;;;;8.20;4.47;;;21.70;99.90;;;-141.84;48.32;19838.22;5013081;28;20305;-57
2022/06/11 06:15:09;;;;;;;7.55;4.30;;;21.70;99.90;;;-141.84;49.05;19850.41;5013154;28;20233;-59
2022/06/11 06:17:38;;;;;;;5.88;3.95;;;21.80;99.90;;;-141.84;48.38;19830.09;5013184;28;20300;-57
2022/06/11 06:20:11;;;;;;;7.07;4.15;;;21.80;99.90;;;-141.84;48.25;19874.81;5013717;28;20205;-58
2022/06/11 06:22:39;;;;;;;7.32;4.28;;;21.90;99.90;;;-141.84;48.83;19834.16;5033110;28;20206;-58
2022/06/11 06:25:08;;;;;;;6.70;4.00;;;21.80;99.90;;;-141.84;49.19;19817.91;5032566;28;20675;-59
2022/06/11 06:27:36;;;;;;;4.82;4.05;;;21.90;99.90;;;-141.84;48.72;19848.38;5032988;28;20232;-60
2022/06/11 06:30:08;;;;;;;5.55;4.15;;;22.00;99.90;;;-141.84;48.01;19848.38;5032789;28;20240;-58
2022/06/11 06:32:36;;;;;;;5.50;4.07;;;22.10;99.90;;;-141.84;47.67;19907.31;5032540;28;20232;-57
2022/06/11 06:35:07;;;;;;;5.25;4.05;;;22.30;99.90;;;-141.84;47.86;19907.31;5022264;28;20203;-59
2022/06/11 06:37:35;;;;;;;4.10;3.33;;;22.20;99.90;;;-141.84;47.60;19937.81;5012678;28;20726;-57
2022/06/11 06:40:05;;;;;;;5.53;3.40;;;22.50;99.90;;;-141.84;46.79;19927.66;5012650;28;20265;-57
2022/06/11 06:42:33;;;;;;;6.30;3.42;;;22.50;99.90;;;-141.84;47.11;19903.25;5028529;28;20337;-58
2022/06/11 06:45:01;;;;;;;4.13;3.72;;;22.60;99.90;;;-141.84;46.71;19941.88;5032556;28;20253;-59
2022/06/11 06:47:31;;;;;;;5.45;3.70;;;22.50;99.90;;;-141.84;46.60;19933.75;5032206;28;20666;-57
2022/06/11 06:49:59;;;;;;;4.88;3.22;;;22.60;99.90;;;-141.84;46.48;19931.72;5033029;28;20202;-58
2022/06/11 06:52:27;;;;;;;4.97;3.38;;;22.70;99.90;;;-141.84;45.24;19980.50;5032079;28;20229;-59
2022/06/11 06:54:56;;;;;;;6.15;3.33;;;22.70;99.90;;;-141.84;45.55;20017.09;5032083;28;20232;-59
2022/06/11 06:57:24;;;;;;;4.65;3.50;;;22.60;99.90;;;-141.84;45.98;19954.06;5031723;28;20669;-57
2022/06/11 06:59:52;;;;;;;3.25;2.95;;;22.70;99.90;;;-141.84;46.56;19980.50;5032342;28;20246;-58
2022/06/11 07:02:20;;;;;;;4.43;2.80;;;22.80;99.90;;;-141.84;45.99;19968.31;5032056;28;20281;-58
2022/06/11 07:04:49;;;;;;;4.85;3.20;;;23.00;99.90;;;-141.84;44.42;20067.88;5032380;28;20297;-58
2022/06/11 07:07:19;;;;;;;5.40;3.30;;;23.10;99.90;;;-141.84;45.82;20039.44;5031751;28;20236;-58
2022/06/11 07:09:53;;;;;;;5.07;2.95;;;23.10;99.90;;;-141.84;44.37;20061.78;5036344;28;20264;-56
2022/06/11 07:12:21;;;;;;;3.20;2.85;;;23.10;99.90;;;-141.84;44.99;20061.78;5031417;28;20696;-59
2022/06/11 07:14:49;;;;;;;4.45;3.28;;;23.20;99.90;;;-141.84;44.91;20067.88;5035752;28;20221;-57
2022/06/11 07:17:19;;;;;;;4.45;3.28;;;23.30;99.90;;;-141.84;44.03;20084.16;5035135;28;20202;-58
2022/06/11 07:19:54;;;;;;;3.28;2.97;;;23.20;99.90;;;-141.84;44.99;20061.78;5032216;28;20297;-58
2022/06/11 07:22:31;;;;;;;6.03;3.25;;;23.20;99.90;;;-141.84;43.72;20082.13;5031361;28;20217;-58
2022/06/11 07:25:02;;;;;;;5.53;3.35;;;23.30;99.90;;;-141.84;44.97;20053.66;5031293;28;20229;-58
2022/06/11 07:27:37;;;;;;;4.93;3.28;;;23.30;99.90;;;-141.84;45.08;20057.72;5031401;28;20236;-58
2022/06/11 07:30:12;;;;;;;3.75;2.85;;;23.20;99.90;;;-141.84;45.49;20047.56;5031536;28;20312;-58
2022/06/11 07:32:41;;;;;;;4.60;2.95;;;23.20;99.90;;;-141.84;44.00;20126.84;5031373;28;20308;-59
2022/06/11 07:35:17;;;;;;;4.82;2.95;;;23.30;99.90;;;-141.84;43.79;20112.59;5029076;28;20205;-58
2022/06/11 07:37:48;;;;;;;5.80;3.17;;;23.30;99.90;;;-141.84;44.31;20112.59;5051547;28;20288;-59
2022/06/11 07:40:19;;;;;;;4.57;2.72;;;23.30;99.90;;;-141.84;44.09;20096.34;5051085;28;20259;-57
2022/06/11 07:42:47;;;;;;;5.45;3.22;;;23.40;99.90;;;-141.84;43.64;20139.03;5050648;28;20263;-59
2022/06/11 07:45:15;;;;;;;4.70;3.22;;;23.50;99.90;;;-141.84;42.48;20165.44;5051169;28;20243;-58
2022/06/11 07:47:56;;;;;;;5.18;3.33;;;23.60;99.90;;;-141.84;43.75;20096.34;5050095;28;20271;-58
2022/06/11 07:50:32;;;;;;;3.60;2.90;;;23.50;99.90;;;-141.84;43.19;20151.22;5032778;28;20288;-58
2022/06/11 07:53:02;;;;;;;3.33;2.60;;;23.60;99.90;;;-141.84;42.36;20147.16;5011648;28;20224;-58
2022/06/11 07:55:32;;;;;;;5.32;2.50;;;23.60;99.90;;;-141.84;43.38;20143.09;5011072;28;20231;-60
2022/06/11 07:58:01;;;;;;;3.95;2.88;;;23.50;99.90;;;-141.84;42.73;20177.66;5011011;28;20770;-58
2022/06/11 08:00:36;;;;;;;3.00;2.63;;;23.60;99.90;;;-141.84;42.03;20193.91;5011108;28;20254;-57
2022/06/11 08:03:05;;;;;;;5.55;2.75;;;23.60;99.90;;;-141.84;42.23;20161.38;5010856;28;20222;-59
2022/06/11 08:05:36;;;;;;;2.72;2.50;;;23.60;99.90;;;-141.84;42.77;20169.53;5022696;28;20230;-58
2022/06/11 08:08:07;;;;;;;2.83;2.60;;;23.60;99.90;;;-141.84;42.45;20147.16;5011929;28;20202;-58
2022/06/11 08:10:39;;;;;;;4.28;2.53;;;23.60;99.90;;;-141.84;41.55;20193.91;5014718;28;20319;-57
2022/06/11 08:13:09;;;;;;;3.50;2.30;;;23.50;99.90;;;-141.84;41.13;20230.50;5024525;28;20263;-57
2022/06/11 08:15:39;;;;;;;3.60;2.20;;;23.70;99.90;;;-141.84;40.26;20271.16;5020833;28;20769;-59
2022/06/11 08:18:07;;;;;;;3.08;2.30;;;23.70;99.90;;;-141.84;38.97;20313.84;5017829;28;20732;-58
2022/06/11 08:20:39;;;;;;;3.58;2.30;;;23.70;99.90;;;-141.84;40.01;20265.03;5030609;28;20246;-58
2022/06/11 08:23:08;;;;;;;3.05;2.40;;;23.80;99.90;;;-141.84;40.57;20271.16;5030841;28;20685;-58
2022/06/11 08:25:38;;;;;;;5.18;2.40;;;23.90;99.90;;;-141.84;40.45;20281.31;5030252;28;20230;-58
2022/06/11 08:28:08;;;;;;;2.50;2.25;;;23.80;99.90;;;-141.84;40.53;20285.38;5030357;28;20245;-57
2022/06/11 08:30:36;;;;;;;3.67;2.47;;;23.90;99.90;;;-141.84;40.20;20260.97;5030389;28;20224;-58
2022/06/11 08:33:04;;;;;;;2.97;2.70;;;23.90;99.90;;;-141.84;40.50;20250.81;5028976;28;20222;-54
2022/06/11 08:35:35;;;;;;;3.40;2.40;;;23.80;99.90;;;-141.84;41.24;20244.72;5030198;28;20252;-58
2022/06/11 08:38:06;;;;;;;2.33;2.13;;;23.80;99.90;;;-141.84;40.36;20248.78;5030861;28;20190;-58
2022/06/11 08:40:39;;;;;;;3.63;2.40;;;23.70;99.90;;;-141.84;41.05;20216.25;5028814;28;20599;-59
2022/06/11 08:43:22;;;;;;;2.92;2.20;;;23.60;99.90;;;-141.84;40.80;20232.53;5029552;28;20588;-58
2022/06/11 08:45:55;;;;;;;4.75;2.17;;;23.70;99.90;;;-141.84;40.67;20260.97;5023062;28;20228;-57
2022/06/11 08:48:44;;;;;;;4.03;2.35;;;23.80;99.90;;;-141.84;40.03;20305.69;5026215;28;20295;-58
2022/06/11 08:51:24;;;;;;;2.50;2.13;;;23.90;99.90;;;-141.84;39.26;20328.06;5030569;28;20272;-58
2022/06/11 08:54:00;;;;;;;4.78;2.70;;;24.00;99.90;;;-141.84;39.33;20317.91;5037698;28;20217;-59
2022/06/11 08:56:39;;;;;;;2.88;2.28;;;24.00;99.90;;;-141.84;39.45;20340.25;5029522;28;20185;-60
2022/06/11 08:59:34;;;;;;;2.78;2.30;;;24.10;99.90;;;-141.84;38.76;20356.50;5033779;28;20186;-60
2022/06/11 09:02:28;;;;;;;2.80;2.10;;;24.20;99.90;;;-141.84;39.07;20350.41;5014413;28;20246;-59
2022/06/11 09:05:23;;;;;;;4.25;2.00;;;24.20;99.90;;;-141.84;38.69;20358.56;5014126;28;20561;-59
2022/06/11 09:08:10;;;;;;;3.00;2.13;;;24.20;99.90;;;-141.84;38.15;20401.22;5023648;28;20698;-59
2022/06/11 09:11:03;;;;;;;2.63;1.90;;;24.30;99.90;;;-141.84;38.38;20403.25;5034409;28;20214;-59
2022/06/11 09:14:02;;;;;;;3.25;2.22;;;24.30;99.90;;;-141.84;37.81;20464.25;5014107;28;20309;-60
2022/06/11 09:16:55;;;;;;;3.70;2.10;;;24.50;99.90;;;-141.84;36.92;20484.56;5012356;28;20640;-59
2022/06/11 09:19:47;;;;;;;2.80;2.10;;;24.60;99.90;;;-141.84;37.88;20447.97;5014026;28;20680;-59
2022/06/11 09:22:49;;;;;;;2.38;1.88;;;24.60;99.90;;;-141.84;37.19;20519.13;5014336;28;20226;-59
2022/06/11 09:25:38;;;;;;;2.95;2.00;;;24.60;99.90;;;-141.84;36.54;20567.91;5046907;28;20224;-59
2022/06/11 09:28:20;;;;;;;2.33;2.00;;;24.90;99.90;;;-141.84;36.58;20612.63;5050356;28;20229;-60
2022/06/11 09:31:02;;;;;;;3.90;2.20;;;25.00;99.90;;;-141.84;36.34;20598.41;5022711;28;20233;-59
2022/06/11 09:33:40;;;;;;;2.65;2.30;;;25.20;99.90;;;-141.84;36.23;20704.13;5020297;28;20233;-60
2022/06/11 09:36:17;;;;;;;4.97;1.98;;;25.40;99.90;;;-141.84;35.70;20704.13;5002964;28;20229;-60
2022/06/11 09:39:02;;;;;;;2.47;2.10;;;25.60;99.90;;;-141.84;36.03;20726.47;5010899;28;20306;-59
2022/06/11 09:41:46;;;;;;;3.63;2.20;;;25.70;99.90;;;-141.84;36.01;20767.13;5009972;28;20210;-62
2022/06/11 09:44:41;;;;;;;3.15;2.20;;;25.90;99.90;;;-141.84;36.17;20746.81;5013952;28;20198;-61
2022/06/11 09:47:29;;;;;;;2.88;2.13;;;25.90;99.90;;;-141.84;35.62;20744.78;4997168;28;20221;-59
2022/06/11 09:50:19;;;;;;;3.17;1.60;;;25.80;99.90;;;-141.84;35.12;20702.09;5032964;28;20222;-59
2022/06/11 09:53:00;;;;;;;3.00;1.90;;;25.60;99.90;;;-141.84;35.55;20647.19;5016831;28;20245;-61
2022/06/11 09:55:40;;;;;;;3.42;1.83;;;25.30;99.90;;;-141.84;35.45;20618.72;5013901;28;20234;-62
2022/06/11 09:58:26;;;;;;;2.97;1.90;;;25.10;99.90;;;-141.84;36.28;20606.53;5014158;28;20222;-60
2022/06/11 10:01:04;;;;;;;4.85;2.00;;;24.90;99.90;;;-141.84;36.37;20643.13;5013923;28;20665;-60
2022/06/11 10:03:41;;;;;;;3.72;1.85;;;24.90;99.90;;;-141.84;36.87;20584.19;5011712;28;20652;-59
2022/06/11 10:06:15;;;;;;;2.28;1.85;;;24.90;99.90;;;-141.84;36.61;20561.81;4994205;28;20231;-60
2022/06/11 10:08:50;;;;;;;4.15;2.03;;;24.90;99.90;;;-141.84;36.42;20614.66;5012232;28;20313;-60
2022/06/11 10:11:25;;;;;;;5.85;2.10;;;24.90;99.90;;;-141.84;36.47;20647.19;5006503;28;20250;-59
2022/06/11 10:14:28;;;;;;;2.90;2.10;;;25.00;99.90;;;-141.84;36.74;20647.19;5015378;28;20226;-60
2022/06/11 10:16:59;;;;;;;3.30;2.30;;;25.20;99.90;;;-141.84;36.49;20663.47;4997854;28;20223;-62
2022/06/11 10:19:40;;;;;;;2.60;2.13;;;25.20;99.90;;;-141.84;36.86;20604.50;5023384;28;20278;-60
2022/06/11 10:22:17;;;;;;;2.42;1.92;;;25.10;99.90;;;-141.84;36.23;20669.56;5037835;28;20248;-60
2022/06/11 10:25:07;;;;;;;3.08;2.05;;;25.20;99.90;;;-141.84;35.83;20728.50;5033037;28;20251;-61
2022/06/11 10:27:41;;;;;;;4.40;2.30;;;25.30;99.90;;;-141.84;36.22;20663.47;5015208;28;20714;-61
2022/06/11 10:30:31;;;;;;;3.70;2.17;;;25.30;99.90;;;-141.84;35.97;20740.69;5032790;28;20236;-59
2022/06/11 10:33:07;;;;;;;3.58;1.95;;;25.40;99.90;;;-141.84;35.77;20785.44;5033562;28;20317;-61
2022/06/11 10:35:44;;;;;;;4.43;1.95;;;25.60;99.90;;;-141.84;35.78;20783.41;5033785;28;20287;-59